• Join FlightAware (Why Join?)
  • Login
  • US Flag 
08:14AM EDT


 

Airport Tracker/Info


-or-


 

Live Flight TrackerFlight Track Log ✈ N328AJ ✈ 19-Dec-2013 ✈ KEYW - KCMH

Flight Track Log - Related Links

Times and Time Zones

All times are in EST time to prevent confusion due to time zone crossing. See the N328AJ flight status page for this flight to view local times or setup timezone preferences in your user account.

Time Position Orientation Groundspeed Altitude Reporting Facility
EST Latitude Longitude Course Direction KTS MPH feet Rate Location/Type
02:47PM 24.7064 -81.6753 336° Northwest 238 274 4,500  Level Miami Center
02:48PM 24.7600 -81.6317 36° Northeast 238 274 5,600 1,080 Climbing Miami Center
02:49PM 24.8158 -81.5858 37° Northeast 244 281 6,700 1,080 Climbing Miami Center
02:50PM 24.8736 -81.5400 36° Northeast 249 287 7,800 1,140 Climbing Miami Center
02:51PM 25.0958 -81.7934 336° Northwest  Level Estimated
02:51PM 24.9292 -81.4961 36° Northeast 249 287 9,000  Level Miami Center
02:52PM 24.9872 -81.4481 37° Northeast 254 292 9,900 480 Climbing Miami Center
02:53PM 25.0494 -81.3953 38° Northeast 260 299 10,000 180 Climbing Miami Center
02:54PM 25.1136 -81.3450 35° Northeast 271 312 10,300 540 Climbing Miami Center
02:55PM 25.1869 -81.3339 North 261 300 11,100 780 Climbing Miami Center
02:56PM 25.2636 -81.3528 347° North 253 291 11,900 840 Climbing Miami Center
02:57PM 25.3403 -81.3739 346° North 264 304 12,800 1,020 Climbing Miami Center
02:58PM 25.4128 -81.3906 348° North 275 316 14,000 1,080 Climbing Miami Center
02:59PM 25.4797 -81.3906 360° North 275 316 15,000 960 Climbing Miami Center
03:00PM 25.5611 -81.3936 358° North 270 311 16,000 960 Climbing Miami Center
03:01PM 25.6342 -81.3919 North 270 311 17,000 840 Climbing Miami Center
03:02PM 25.7011 -81.3897 North 270 311 17,700 600 Climbing Miami Center
03:03PM 25.7847 -81.3906 359° North 270 311 18,200 540 Climbing Miami Center
03:04PM 25.8597 -81.3911 360° North 275 316 18,800 600 Climbing Miami Center
03:05PM 25.9350 -81.3917 360° North 270 311 19,500 660 Climbing Miami Center
03:06PM 26.0100 -81.3922 360° North 270 311 20,200 660 Climbing Miami Center
03:07PM 26.0853 -81.3928 360° North 270 311 20,900 660 Climbing Miami Center
03:08PM 26.1583 -81.3931 360° North 270 311 21,600 660 Climbing Miami Center
03:09PM 26.2294 -81.3914 North 270 311 22,300 660 Climbing Miami Center
03:10PM 26.3025 -81.3917 360° North 265 305 23,000 660 Climbing Miami Center
03:11PM 26.3756 -81.3922 360° North 259 298 23,700 660 Climbing Miami Center
03:12PM 26.4464 -81.3925 360° North 259 298 24,400 720 Climbing Miami Center
03:13PM 26.5175 -81.3906 North 254 292 25,200 660 Climbing Miami Center
03:14PM 26.5906 -81.3911 360° North 254 292 25,800 540 Climbing Miami Center
03:15PM 26.6617 -81.3917 360° North 254 292 26,300 480 Climbing Miami Center
03:16PM 26.7283 -81.3919 360° North 254 292 26,800 480 Climbing Miami Center
03:17PM 26.7994 -81.3922 360° North 254 292 27,300 480 Climbing Miami Center
03:18PM 26.8697 -81.4158 343° North 249 287 27,800 300 Climbing Miami Center
03:19PM 26.9311 -81.4486 335° Northwest 243 280 28,000 60 Climbing Miami Center
03:20PM 26.9969 -81.4839 334° Northwest 249 287 28,000  Level Miami Center
03:21PM 27.0586 -81.5142 336° Northwest 259 298 28,000  Level Miami Center
03:22PM 27.1261 -81.5519 334° Northwest 259 298 28,000  Level Miami Center
03:23PM 27.2000 -81.5922 334° Northwest 264 304 28,000  Level Miami Center
03:24PM 27.2697 -81.6303 334° Northwest 271 312 28,000  Level Miami Center
03:25PM 27.3417 -81.6658 336° Northwest 277 319 28,000  Level Miami Center
03:26PM 27.4031 -81.7011 333° Northwest 272 313 28,000  Level Miami Center
03:27PM 27.4831 -81.7444 334° Northwest 272 313 28,000  Level Miami Center
03:28PM 27.5528 -81.7800 336° Northwest 272 313 28,000  Level Miami Center
03:29PM 27.6244 -81.8183 335° Northwest 277 319 28,000  Level Miami Center
03:30PM 27.6881 -81.8517 335° Northwest 277 319 28,000  Level Miami Center
03:32PM 27.8606 -81.9442 335° Northwest 281 323 28,000  Level Jacksonville Center
03:33PM 27.9319 -81.9836 334° Northwest 281 323 28,000  Level Jacksonville Center
03:34PM 28.0008 -82.0253 332° Northwest 281 323 28,000  Level Jacksonville Center
03:35PM 28.0597 -82.0789 321° Northwest 281 323 28,000  Level Jacksonville Center
03:36PM 28.1206 -82.1347 321° Northwest 281 323 28,000  Level Jacksonville Center
03:37PM 28.1814 -82.1886 322° Northwest 281 323 28,000  Level Jacksonville Center
03:38PM 28.2422 -82.2447 321° Northwest 281 323 28,000  Level Jacksonville Center
03:39PM 28.3050 -82.2961 324° Northwest 281 323 28,000  Level Jacksonville Center
03:40PM 28.3844 -82.3192 346° North 286 329 28,000  Level Jacksonville Center
03:41PM 28.4639 -82.3422 346° North 291 335 28,000  Level Jacksonville Center
03:42PM 28.5433 -82.3633 347° North 291 335 28,000  Level Jacksonville Center
03:43PM 28.6228 -82.3864 346° North 291 335 28,000  Level Jacksonville Center
03:44PM 28.7000 -82.4050 348° North 291 335 28,000  Level Jacksonville Center
03:45PM 28.7794 -82.4236 348° North 286 329 28,000  Level Jacksonville Center
03:46PM 28.8567 -82.4469 345° North 286 329 28,000  Level Jacksonville Center
03:47PM 28.9339 -82.4703 345° North 286 329 28,000  Level Jacksonville Center
03:48PM 29.0133 -82.4914 347° North 281 323 28,000  Level Jacksonville Center
03:49PM 29.0928 -82.5147 346° North 281 323 28,000  Level Jacksonville Center
03:50PM 29.1700 -82.5358 347° North 281 323 28,000  Level Jacksonville Center
03:51PM 29.2472 -82.5569 347° North 281 323 28,000  Level Jacksonville Center
03:52PM 29.3267 -82.5781 347° North 281 323 28,000  Level Jacksonville Center
03:53PM 29.4061 -82.6017 345° North 281 323 28,000  Level Jacksonville Center
03:54PM 29.4894 -82.6039 359° North 281 323 28,000  Level Jacksonville Center
03:55PM 29.5731 -82.5989 North 291 335 28,100 300 Climbing Jacksonville Center
03:56PM 29.6525 -82.5961 North 291 335 28,600 420 Climbing Jacksonville Center
03:57PM 29.7317 -82.5889 North 286 329 29,000 180 Climbing Jacksonville Center
03:58PM 29.8111 -82.5861 North 286 329 29,000  Level Jacksonville Center
03:59PM 29.8944 -82.5811 North 286 329 29,000  Level Jacksonville Center
04:00PM 29.9758 -82.5783 North 291 335 29,000  Level Jacksonville Center
04:01PM 30.0572 -82.5781 360° North 291 335 29,000  Level Jacksonville Center
04:02PM 30.1389 -82.5731 North 291 335 29,000  Level Jacksonville Center
04:03PM 30.2222 -82.5706 North 291 335 29,000  Level Jacksonville Center
04:04PM 30.3017 -82.5631 North 291 335 29,000  Level Jacksonville Center
04:05PM 30.3872 -82.5603 North 291 335 29,000  Level Jacksonville Center
04:06PM 30.4686 -82.5575 North 291 335 29,000  Level Jacksonville Center
04:07PM 30.5522 -82.5525 North 291 335 29,000  Level Jacksonville Center
04:08PM 30.6336 -82.5472 North 291 335 29,000  Level Jacksonville Center
04:09PM 30.7150 -82.5447 North 291 335 29,000  Level Jacksonville Center
04:10PM 30.8006 -82.5394 North 291 335 29,000  Level Jacksonville Center
04:11PM 30.8819 -82.5367 North 291 335 29,000  Level Jacksonville Center
04:12PM 30.9656 -82.5317 North 291 335 29,000  Level Jacksonville Center
04:13PM 31.0489 -82.5289 North 291 335 29,000  Level Jacksonville Center
04:14PM 31.1303 -82.5236 North 291 335 29,000  Level Jacksonville Center
04:15PM 31.2119 -82.5208 North 291 335 29,000  Level Jacksonville Center
04:16PM 31.2911 -82.5158 North 291 335 29,000  Level Jacksonville Center
04:17PM 31.3747 -82.5106 North 291 335 29,000  Level Jacksonville Center
04:18PM 31.4581 -82.5028 North 291 335 29,000  Level Jacksonville Center
04:19PM 31.5394 -82.5000 North 291 335 29,000  Level Jacksonville Center
04:20PM 31.6231 -82.4950 North 291 335 29,000  Level Jacksonville Center
04:22PM 31.7850 -82.4900 North 308 354 29,000  Level Atlanta Center
04:24PM 31.9497 -82.4797 North 298 343 29,000  Level Atlanta Center
04:25PM 32.0331 -82.4758 North 292 336 29,000  Level Atlanta Center
04:26PM 32.1144 -82.4719 North 287 330 29,000  Level Atlanta Center
04:27PM 32.1958 -82.4681 North 287 330 29,000  Level Atlanta Center
04:28PM 32.2686 -82.4617 North 287 330 29,000  Level Atlanta Center
04:29PM 32.3583 -82.4603 North 287 330 29,000  Level Atlanta Center
04:30PM 32.4397 -82.4539 North 287 330 29,000  Level Atlanta Center
04:31PM 32.5253 -82.4497 North 287 330 29,000  Level Atlanta Center
04:32PM 32.6089 -82.4458 North 287 330 29,000  Level Atlanta Center
04:33PM 32.6900 -82.4419 North 287 330 29,000  Level Atlanta Center
04:34PM 32.7714 -82.4381 North 293 337 29,000  Level Atlanta Center
04:35PM 32.8550 -82.4317 North 293 337 29,000  Level Atlanta Center
04:36PM 32.9383 -82.4300 North 288 331 29,000  Level Atlanta Center
04:37PM 33.0197 -82.4236 North 288 331 29,000  Level Atlanta Center
04:38PM 33.1031 -82.4194 North 293 337 29,000  Level Atlanta Center
04:39PM 33.1844 -82.4156 North 293 337 29,000  Level Atlanta Center
04:40PM 33.2678 -82.4114 North 288 331 29,000  Level Atlanta Center
04:41PM 33.3492 -82.4100 North 288 331 29,000  Level Atlanta Center
04:42PM 33.4286 -82.4058 North 288 331 29,000  Level Atlanta Center
04:43PM 33.5119 -82.4019 North 288 331 29,000  Level Atlanta Center
04:44PM 33.5953 -82.3953 North 289 333 29,000  Level Atlanta Center
04:45PM 33.6831 -82.3911 North 296 341 29,000  Level Atlanta Center
04:46PM 33.7600 -82.3847 North 307 353 29,000  Level Atlanta Center
04:47PM 33.8436 -82.3806 North 307 353 29,000  Level Atlanta Center
04:48PM 33.9292 -82.3739 North 305 351 29,000  Level Atlanta Center
04:49PM 34.0167 -82.3697 North 317 365 29,000  Level Atlanta Center
04:50PM 34.1000 -82.3656 North 300 345 29,000  Level Atlanta Center
04:51PM 34.2003 -82.3611 North 312 359 29,000  Level Atlanta Center
04:52PM 34.2858 -82.3569 North 312 359 29,000  Level Atlanta Center
04:53PM 34.3692 -82.3525 North 307 353 29,000  Level Atlanta Center
04:54PM 34.4567 -82.3483 North 307 353 29,000  Level Atlanta Center
04:55PM 34.5422 -82.3417 North 307 353 29,000  Level Atlanta Center
04:56PM 34.6297 -82.3397 North 307 353 29,000  Level Atlanta Center
04:57PM 34.7131 -82.3306 North 307 353 29,000  Level Atlanta Center
04:58PM 34.7986 -82.3264 North 307 353 29,000  Level Atlanta Center
04:59PM 34.8842 -82.3244 North 307 353 29,000  Level Atlanta Center
05:00PM 34.9717 -82.3203 North 307 353 29,000  Level Atlanta Center
05:01PM 35.0572 -82.3158 North 307 353 29,000  Level Atlanta Center
05:02PM 35.1447 -82.3089 North 307 353 29,000  Level Atlanta Center
05:03PM 35.2283 -82.3072 North 307 353 29,000  Level Atlanta Center
05:04PM 35.3158 -82.3028 North 307 353 29,000  Level Atlanta Center
05:05PM 35.3992 -82.2986 North 307 353 29,000  Level Atlanta Center
05:06PM 35.4847 -82.2942 North 307 353 29,000  Level Atlanta Center
05:07PM 35.5703 -82.2897 North 307 353 29,000  Level Atlanta Center
05:08PM 35.6556 -82.2856 North 307 353 29,000  Level Atlanta Center
05:09PM 35.7389 -82.2758 North 307 353 29,000  Level Atlanta Center
05:10PM 35.8139 -82.2719 North 301 346 29,000  Level Atlanta Center
05:11PM 35.8994 -82.2675 North 301 346 29,000  Level Atlanta Center
05:12PM 35.9850 -82.2631 North 306 352 29,000  Level Atlanta Center
05:13PM 36.0683 -82.2558 North 305 351 29,000  Level Atlanta Center
05:14PM 36.1536 -82.2517 North 305 351 29,000  Level Atlanta Center
05:15PM 36.2369 -82.2472 North 305 351 29,000  Level Atlanta Center
05:16PM 36.3203 -82.2400 North 305 351 29,000  Level Atlanta Center
05:17PM 36.4036 -82.2356 North 300 345 29,000  Level Atlanta Center
05:18PM 36.4872 -82.2311 North 300 345 29,000  Level Atlanta Center
05:19PM 36.5706 -82.2267 North 300 345 29,000  Level Atlanta Center
05:20PM 36.6658 -82.2219 North 302 348 29,000  Level Indianapolis Center
05:21PM 36.7622 -82.2161 North 298 343 29,000  Level Indianapolis Center
05:22PM 36.8472 -82.2114 North 303 349 29,000  Level Indianapolis Center
05:23PM 36.9303 -82.2067 North 299 344 29,000  Level Indianapolis Center
05:25PM 37.0139 -82.2025 North 300 345 29,000  Level Indianapolis Center
05:26PM 37.0978 -82.1972 North 300 345 29,000  Level Indianapolis Center
05:27PM 37.1964 -82.1919 North 303 349 29,000  Level Indianapolis Center
05:28PM 37.2797 -82.1867 North 301 346 29,000  Level Indianapolis Center
05:29PM 37.3644 -82.1819 North 303 349 29,000  Level Indianapolis Center
05:30PM 37.4478 -82.1778 North 300 345 29,000 -60 Level Indianapolis Center
05:31PM 37.5331 -82.1722 North 305 351 28,900 -360 Descending Indianapolis Center
05:32PM 37.6347 -82.1667 North 312 359 28,300 -480 Descending Indianapolis Center
05:33PM 37.7239 -82.1606 North 318 366 28,000 -180 Descending Indianapolis Center
05:34PM 37.8119 -82.1553 North 316 364 28,000  Level Indianapolis Center
05:35PM 37.8942 -82.1508 North 313 360 28,000  Level Indianapolis Center
05:36PM 37.9797 -82.1453 North 309 356 28,000  Level Indianapolis Center
05:37PM 38.0839 -82.1389 North 310 357 28,000 -60 Level Indianapolis Center
05:38PM 38.1675 -82.1344 North 303 349 27,900 -540 Descending Indianapolis Center
05:39PM 38.2531 -82.1286 North 305 351 27,000 -840 Descending Indianapolis Center
05:40PM 38.3411 -82.1239 North 315 362 26,200 -780 Descending Indianapolis Center
05:41PM 38.4306 -82.1178 North 319 367 25,400 -780 Descending Indianapolis Center
05:42PM 38.5211 -82.1122 North 322 371 24,600 -720 Descending Indianapolis Center
05:43PM 38.6114 -82.1069 North 323 372 24,000 -900 Descending Indianapolis Center
05:44PM 38.7200 -82.1003 North 323 372 22,800 -1,200 Descending Indianapolis Center
05:45PM 38.8122 -82.0947 North 329 379 21,600 -1,200 Descending Indianapolis Center
05:46PM 38.9033 -82.0900 North 325 374 20,400 -1,200 Descending Indianapolis Center
05:47PM 38.9864 -82.1181 345° North 308 354 19,200 -720 Descending Indianapolis Center
05:48PM 39.0675 -82.1464 345° North 301 346 18,900 -720 Descending Indianapolis Center
05:49PM 39.1556 -82.1575 354° North 315 362 17,800 -1,380 Descending Indianapolis Center
05:50PM 39.2475 -82.1694 354° North 328 377 16,100 -1,860 Descending Indianapolis Center
05:51PM 39.3539 -82.1814 355° North 318 366 14,000 -2,340 Descending Indianapolis Center
05:52PM 39.4150 -82.1917 353° North 303 349 12,100 -2,820 Descending Indianapolis Center
05:52PM 39.4364 -82.1928 358° North 297 342 11,100 -3,780 Descending Indianapolis Center
05:53PM 39.4442 -82.1958 343° North 290 334 10,600 -2,460 Descending Indianapolis Center
05:53PM 39.5044 -82.2050 353° North 288 331 8,600 -2,400 Descending Indianapolis Center
05:54PM 39.5225 -82.2103 347° North 282 325 8,200 -600 Descending Indianapolis Center
05:55PM 39.5925 -82.2264 350° North 271 312 8,000 -240 Descending Indianapolis Center
05:55PM 39.5944 -82.2292 312° West 262 302 8,000  Level Indianapolis Center
05:56PM 39.6669 -82.2400 353° North 270 311 8,000  Level Indianapolis Center
05:56PM 39.6708 -82.2431 329° Northwest 272 313 8,000  Level Indianapolis Center
05:57PM 39.7422 -82.2561 352° North 275 316 8,000  Level Indianapolis Center
05:57PM 39.7486 -82.2631 320° Northwest 270 311 8,000  Level Indianapolis Center
05:58PM 39.8119 -82.3078 332° Northwest 260 299 8,000  Level Indianapolis Center
05:59PM 39.8678 -82.3625 323° Northwest 252 290 8,000  Level Indianapolis Center
05:59PM 39.8650 -82.3511 108° East 257 296 8,000 -1,440 Level Indianapolis Center
06:00PM 39.9008 -82.4383 298° West 243 280 6,600 -1,500 Descending Indianapolis Center
06:00PM 39.9036 -82.4428 309° West 242 278 6,500 -1,500 Descending Indianapolis Center
06:01PM 39.9275 -82.5133 294° West 229 264 5,100 -1,380 Descending Indianapolis Center
06:01PM 39.9314 -82.5181 317° Northwest 236 272 5,100 -300 Level Indianapolis Center
06:02PM 39.9558 -82.5869 295° West 217 250 4,800 -960 Descending Indianapolis Center
06:03PM 39.9778 -82.6547 293° West 202 232 3,300 -1,500 Descending Indianapolis Center
06:03PM 39.9789 -82.6533 44° Northeast 208 239 3,300 -300 Level Indianapolis Center
06:04PM 39.9825 -82.7156 274° West 149 171 3,000 -300 Descending Indianapolis Center
06:04PM 39.9836 -82.7128 62° Northeast 180 207 3,000 -420 Level Indianapolis Center
06:05PM 39.9847 -82.7597 272° West 118 136 2,600 -420 Descending Indianapolis Center
06:05PM 39.9847 -82.7600 270° West 148 170 2,600 -600 Level Indianapolis Center
06:06PM 39.9869 -82.8036 274° West 119 137 2,000 -720 Descending Indianapolis Center
06:06PM 39.9883 -82.8117 283° West 130 150 1,900 -720 Descending Indianapolis Center
06:07PM 39.9908 -82.8508 275° West 119 137 1,300 -600 Descending Indianapolis Center
06:07PM 39.9914 -82.8586 275° West 124 143 1,300  Level Indianapolis Center
06:09PM 39.9833 -82.8833 270° West  Level FlightAware Approximate
06:16PM 39.9969 -82.8922 270° West  Level Estimated